sensor_id;sensor_type;location;lat;lon;timestamp;P1;durP1;ratioP1;P2;durP2;ratioP2
920;SDS011;447;51.332;6.778;2022-09-11T00:02:03;3.33;;;3.03;;
920;SDS011;447;51.332;6.778;2022-09-11T00:04:32;3.67;;;3.20;;
920;SDS011;447;51.332;6.778;2022-09-11T00:06:58;6.33;;;3.73;;
920;SDS011;447;51.332;6.778;2022-09-11T00:09:26;3.70;;;3.00;;
920;SDS011;447;51.332;6.778;2022-09-11T00:11:54;3.70;;;3.40;;
920;SDS011;447;51.332;6.778;2022-09-11T00:14:23;3.77;;;3.20;;
920;SDS011;447;51.332;6.778;2022-09-11T00:16:50;5.80;;;3.20;;
920;SDS011;447;51.332;6.778;2022-09-11T00:19:17;3.90;;;3.50;;
920;SDS011;447;51.332;6.778;2022-09-11T00:21:49;3.43;;;3.13;;
920;SDS011;447;51.332;6.778;2022-09-11T00:24:21;3.73;;;3.30;;
920;SDS011;447;51.332;6.778;2022-09-11T00:26:49;4.83;;;3.40;;
920;SDS011;447;51.332;6.778;2022-09-11T00:29:27;3.87;;;3.57;;
920;SDS011;447;51.332;6.778;2022-09-11T00:31:54;5.53;;;3.30;;
920;SDS011;447;51.332;6.778;2022-09-11T00:34:26;4.10;;;3.20;;
920;SDS011;447;51.332;6.778;2022-09-11T00:36:52;5.57;;;3.60;;
920;SDS011;447;51.332;6.778;2022-09-11T00:39:25;3.40;;;2.70;;
920;SDS011;447;51.332;6.778;2022-09-11T00:41:56;4.17;;;3.40;;
920;SDS011;447;51.332;6.778;2022-09-11T00:46:58;4.27;;;3.87;;
920;SDS011;447;51.332;6.778;2022-09-11T00:49:39;3.50;;;3.20;;
920;SDS011;447;51.332;6.778;2022-09-11T00:52:23;4.10;;;3.70;;
920;SDS011;447;51.332;6.778;2022-09-11T00:54:53;3.87;;;3.47;;
920;SDS011;447;51.332;6.778;2022-09-11T00:57:28;5.43;;;3.50;;
920;SDS011;447;51.332;6.778;2022-09-11T00:59:57;4.17;;;3.67;;
920;SDS011;447;51.332;6.778;2022-09-11T01:02:25;5.90;;;3.33;;
920;SDS011;447;51.332;6.778;2022-09-11T01:04:54;3.87;;;3.47;;
920;SDS011;447;51.332;6.778;2022-09-11T01:07:24;3.70;;;3.40;;
920;SDS011;447;51.332;6.778;2022-09-11T01:09:52;3.97;;;3.57;;
920;SDS011;447;51.332;6.778;2022-09-11T01:12:22;4.40;;;3.20;;
920;SDS011;447;51.332;6.778;2022-09-11T01:15:00;3.53;;;3.23;;
920;SDS011;447;51.332;6.778;2022-09-11T01:25:48;3.60;;;3.07;;
920;SDS011;447;51.332;6.778;2022-09-11T01:29:25;6.60;;;4.00;;
920;SDS011;447;51.332;6.778;2022-09-11T01:31:27;4.30;;;3.90;;
920;SDS011;447;51.332;6.778;2022-09-11T01:34:04;4.20;;;3.80;;
920;SDS011;447;51.332;6.778;2022-09-11T01:36:44;4.30;;;3.90;;
920;SDS011;447;51.332;6.778;2022-09-11T01:39:22;3.67;;;3.37;;
920;SDS011;447;51.332;6.778;2022-09-11T01:41:57;4.80;;;3.60;;
920;SDS011;447;51.332;6.778;2022-09-11T01:44:28;4.97;;;3.77;;
920;SDS011;447;51.332;6.778;2022-09-11T01:47:03;3.83;;;3.53;;
920;SDS011;447;51.332;6.778;2022-09-11T01:52:02;4.23;;;3.83;;
920;SDS011;447;51.332;6.778;2022-09-11T01:54:33;4.33;;;3.93;;
920;SDS011;447;51.332;6.778;2022-09-11T01:57:31;5.10;;;4.20;;
920;SDS011;447;51.332;6.778;2022-09-11T02:00:25;5.17;;;3.93;;
920;SDS011;447;51.332;6.778;2022-09-11T02:03:03;4.20;;;3.90;;
920;SDS011;447;51.332;6.778;2022-09-11T02:05:36;4.70;;;4.20;;
920;SDS011;447;51.332;6.778;2022-09-11T02:08:15;5.03;;;4.57;;
920;SDS011;447;51.332;6.778;2022-09-11T02:10:56;4.40;;;4.00;;
920;SDS011;447;51.332;6.778;2022-09-11T02:18:59;4.07;;;3.77;;
920;SDS011;447;51.332;6.778;2022-09-11T02:21:36;4.13;;;3.57;;
920;SDS011;447;51.332;6.778;2022-09-11T02:24:02;5.60;;;4.33;;
920;SDS011;447;51.332;6.778;2022-09-11T02:26:30;5.37;;;4.57;;
920;SDS011;447;51.332;6.778;2022-09-11T02:29:06;4.53;;;3.97;;
920;SDS011;447;51.332;6.778;2022-09-11T02:31:35;4.40;;;4.00;;
920;SDS011;447;51.332;6.778;2022-09-11T02:34:01;7.73;;;4.03;;
920;SDS011;447;51.332;6.778;2022-09-11T02:42:23;7.53;;;4.50;;
920;SDS011;447;51.332;6.778;2022-09-11T02:45:02;4.90;;;4.40;;
920;SDS011;447;51.332;6.778;2022-09-11T02:56:02;5.20;;;4.03;;
920;SDS011;447;51.332;6.778;2022-09-11T02:58:51;5.70;;;4.47;;
920;SDS011;447;51.332;6.778;2022-09-11T03:01:26;5.03;;;4.63;;
920;SDS011;447;51.332;6.778;2022-09-11T03:03:56;5.50;;;4.63;;
920;SDS011;447;51.332;6.778;2022-09-11T03:06:24;5.73;;;5.23;;
920;SDS011;447;51.332;6.778;2022-09-11T03:08:52;5.60;;;5.00;;
920;SDS011;447;51.332;6.778;2022-09-11T03:11:18;6.60;;;5.40;;
920;SDS011;447;51.332;6.778;2022-09-11T03:13:50;5.83;;;5.27;;
920;SDS011;447;51.332;6.778;2022-09-11T03:16:18;5.70;;;5.20;;
920;SDS011;447;51.332;6.778;2022-09-11T03:18:45;7.10;;;5.87;;
920;SDS011;447;51.332;6.778;2022-09-11T03:21:13;5.90;;;5.30;;
920;SDS011;447;51.332;6.778;2022-09-11T03:23:44;5.50;;;4.97;;
920;SDS011;447;51.332;6.778;2022-09-11T03:26:09;5.90;;;5.30;;
920;SDS011;447;51.332;6.778;2022-09-11T03:28:36;5.80;;;4.97;;
920;SDS011;447;51.332;6.778;2022-09-11T03:31:06;6.50;;;5.87;;
920;SDS011;447;51.332;6.778;2022-09-11T03:33:36;8.03;;;6.33;;
920;SDS011;447;51.332;6.778;2022-09-11T03:36:06;8.13;;;6.63;;
920;SDS011;447;51.332;6.778;2022-09-11T03:38:33;9.43;;;6.50;;
920;SDS011;447;51.332;6.778;2022-09-11T03:40:59;6.70;;;6.00;;
920;SDS011;447;51.332;6.778;2022-09-11T03:43:30;8.13;;;6.07;;
920;SDS011;447;51.332;6.778;2022-09-11T03:45:59;8.90;;;6.83;;
920;SDS011;447;51.332;6.778;2022-09-11T03:48:25;10.23;;;6.83;;
920;SDS011;447;51.332;6.778;2022-09-11T03:50:53;9.37;;;6.80;;
920;SDS011;447;51.332;6.778;2022-09-11T03:53:19;12.97;;;8.43;;
920;SDS011;447;51.332;6.778;2022-09-11T03:55:46;13.07;;;9.30;;
920;SDS011;447;51.332;6.778;2022-09-11T03:58:15;13.30;;;8.50;;
920;SDS011;447;51.332;6.778;2022-09-11T04:00:43;16.47;;;10.53;;
920;SDS011;447;51.332;6.778;2022-09-11T04:03:12;15.10;;;10.10;;
920;SDS011;447;51.332;6.778;2022-09-11T04:05:42;15.20;;;9.57;;
920;SDS011;447;51.332;6.778;2022-09-11T04:08:22;15.03;;;9.70;;
920;SDS011;447;51.332;6.778;2022-09-11T04:10:54;16.50;;;9.80;;
920;SDS011;447;51.332;6.778;2022-09-11T04:13:32;17.70;;;11.23;;
920;SDS011;447;51.332;6.778;2022-09-11T04:16:15;15.90;;;11.17;;
920;SDS011;447;51.332;6.778;2022-09-11T04:18:46;21.20;;;12.10;;
920;SDS011;447;51.332;6.778;2022-09-11T04:21:16;21.57;;;12.23;;
920;SDS011;447;51.332;6.778;2022-09-11T04:23:52;24.80;;;14.33;;
920;SDS011;447;51.332;6.778;2022-09-11T04:26:26;28.03;;;15.97;;
920;SDS011;447;51.332;6.778;2022-09-11T04:29:04;23.27;;;15.40;;
920;SDS011;447;51.332;6.778;2022-09-11T04:31:33;29.57;;;16.20;;
920;SDS011;447;51.332;6.778;2022-09-11T04:34:03;29.20;;;15.87;;
920;SDS011;447;51.332;6.778;2022-09-11T04:36:34;34.00;;;15.93;;
920;SDS011;447;51.332;6.778;2022-09-11T04:39:00;27.80;;;16.93;;
920;SDS011;447;51.332;6.778;2022-09-11T04:41:28;30.93;;;17.47;;
920;SDS011;447;51.332;6.778;2022-09-11T04:43:58;30.30;;;16.70;;
920;SDS011;447;51.332;6.778;2022-09-11T04:46:27;36.00;;;19.67;;
920;SDS011;447;51.332;6.778;2022-09-11T04:48:54;30.60;;;17.20;;
920;SDS011;447;51.332;6.778;2022-09-11T04:51:26;32.57;;;17.80;;
920;SDS011;447;51.332;6.778;2022-09-11T04:53:57;31.00;;;18.03;;
920;SDS011;447;51.332;6.778;2022-09-11T04:56:34;38.37;;;19.60;;
920;SDS011;447;51.332;6.778;2022-09-11T04:59:17;33.43;;;18.47;;
920;SDS011;447;51.332;6.778;2022-09-11T05:02:03;33.67;;;20.37;;
920;SDS011;447;51.332;6.778;2022-09-11T05:04:31;34.90;;;20.07;;
920;SDS011;447;51.332;6.778;2022-09-11T05:07:03;36.80;;;20.47;;
920;SDS011;447;51.332;6.778;2022-09-11T05:09:29;35.87;;;20.63;;
920;SDS011;447;51.332;6.778;2022-09-11T05:12:01;37.50;;;21.13;;
920;SDS011;447;51.332;6.778;2022-09-11T05:14:32;34.20;;;20.67;;
920;SDS011;447;51.332;6.778;2022-09-11T05:17:01;39.33;;;21.30;;
920;SDS011;447;51.332;6.778;2022-09-11T05:19:34;39.67;;;20.33;;
920;SDS011;447;51.332;6.778;2022-09-11T05:22:02;37.60;;;20.90;;
920;SDS011;447;51.332;6.778;2022-09-11T05:24:29;43.40;;;21.70;;
920;SDS011;447;51.332;6.778;2022-09-11T05:26:56;42.27;;;22.57;;
920;SDS011;447;51.332;6.778;2022-09-11T05:29:30;38.17;;;20.97;;
920;SDS011;447;51.332;6.778;2022-09-11T05:32:15;39.23;;;23.20;;
920;SDS011;447;51.332;6.778;2022-09-11T05:34:42;41.40;;;22.27;;
920;SDS011;447;51.332;6.778;2022-09-11T05:37:12;39.33;;;22.87;;
920;SDS011;447;51.332;6.778;2022-09-11T05:39:43;39.67;;;21.60;;
920;SDS011;447;51.332;6.778;2022-09-11T05:42:11;36.50;;;21.47;;
920;SDS011;447;51.332;6.778;2022-09-11T05:44:41;36.83;;;22.60;;
920;SDS011;447;51.332;6.778;2022-09-11T05:47:10;40.60;;;23.23;;
920;SDS011;447;51.332;6.778;2022-09-11T05:49:42;38.03;;;22.67;;
920;SDS011;447;51.332;6.778;2022-09-11T05:52:15;36.37;;;22.40;;
920;SDS011;447;51.332;6.778;2022-09-11T05:54:45;35.70;;;21.57;;
920;SDS011;447;51.332;6.778;2022-09-11T05:57:15;35.33;;;19.60;;
920;SDS011;447;51.332;6.778;2022-09-11T05:59:44;41.50;;;21.33;;
920;SDS011;447;51.332;6.778;2022-09-11T06:02:10;34.63;;;20.90;;
920;SDS011;447;51.332;6.778;2022-09-11T06:04:48;38.63;;;22.00;;
920;SDS011;447;51.332;6.778;2022-09-11T06:07:16;36.47;;;20.87;;
920;SDS011;447;51.332;6.778;2022-09-11T06:09:47;37.93;;;21.43;;
920;SDS011;447;51.332;6.778;2022-09-11T06:12:14;38.00;;;22.33;;
920;SDS011;447;51.332;6.778;2022-09-11T06:14:47;40.33;;;22.00;;
920;SDS011;447;51.332;6.778;2022-09-11T06:17:19;37.73;;;20.50;;
920;SDS011;447;51.332;6.778;2022-09-11T06:19:50;36.87;;;22.50;;
920;SDS011;447;51.332;6.778;2022-09-11T06:22:16;44.10;;;21.03;;
920;SDS011;447;51.332;6.778;2022-09-11T06:24:44;33.57;;;21.17;;
920;SDS011;447;51.332;6.778;2022-09-11T06:27:11;38.27;;;21.33;;
920;SDS011;447;51.332;6.778;2022-09-11T06:29:43;31.10;;;19.57;;
920;SDS011;447;51.332;6.778;2022-09-11T06:32:18;38.17;;;21.57;;
920;SDS011;447;51.332;6.778;2022-09-11T06:34:46;34.13;;;22.00;;
920;SDS011;447;51.332;6.778;2022-09-11T06:37:16;35.00;;;22.03;;
920;SDS011;447;51.332;6.778;2022-09-11T06:39:43;36.00;;;20.63;;
920;SDS011;447;51.332;6.778;2022-09-11T06:42:18;36.73;;;21.43;;
920;SDS011;447;51.332;6.778;2022-09-11T06:44:53;36.53;;;20.47;;
920;SDS011;447;51.332;6.778;2022-09-11T06:47:22;37.43;;;22.30;;
920;SDS011;447;51.332;6.778;2022-09-11T06:49:48;37.70;;;21.10;;
920;SDS011;447;51.332;6.778;2022-09-11T06:52:34;39.00;;;23.40;;
920;SDS011;447;51.332;6.778;2022-09-11T06:55:15;38.97;;;23.77;;
920;SDS011;447;51.332;6.778;2022-09-11T06:57:49;37.20;;;22.77;;
920;SDS011;447;51.332;6.778;2022-09-11T07:00:22;40.60;;;24.27;;
920;SDS011;447;51.332;6.778;2022-09-11T07:02:54;41.10;;;23.27;;
920;SDS011;447;51.332;6.778;2022-09-11T07:05:22;41.80;;;23.77;;
920;SDS011;447;51.332;6.778;2022-09-11T07:07:52;42.73;;;25.50;;
920;SDS011;447;51.332;6.778;2022-09-11T07:10:21;43.03;;;25.47;;
920;SDS011;447;51.332;6.778;2022-09-11T07:13:11;40.80;;;25.47;;
920;SDS011;447;51.332;6.778;2022-09-11T07:15:38;44.00;;;26.47;;
920;SDS011;447;51.332;6.778;2022-09-11T07:18:05;48.60;;;26.93;;
920;SDS011;447;51.332;6.778;2022-09-11T07:20:39;46.10;;;25.80;;
920;SDS011;447;51.332;6.778;2022-09-11T07:23:07;40.03;;;25.80;;
920;SDS011;447;51.332;6.778;2022-09-11T07:25:35;45.20;;;25.27;;
920;SDS011;447;51.332;6.778;2022-09-11T07:28:07;51.53;;;28.53;;
920;SDS011;447;51.332;6.778;2022-09-11T07:30:41;53.03;;;31.50;;
920;SDS011;447;51.332;6.778;2022-09-11T07:33:07;46.67;;;27.93;;
920;SDS011;447;51.332;6.778;2022-09-11T07:35:58;50.33;;;29.70;;
920;SDS011;447;51.332;6.778;2022-09-11T07:38:28;50.93;;;28.70;;
920;SDS011;447;51.332;6.778;2022-09-11T07:40:59;51.00;;;30.40;;
920;SDS011;447;51.332;6.778;2022-09-11T07:43:25;50.03;;;30.00;;
920;SDS011;447;51.332;6.778;2022-09-11T07:45:52;55.27;;;31.13;;
920;SDS011;447;51.332;6.778;2022-09-11T07:48:20;55.40;;;31.10;;
920;SDS011;447;51.332;6.778;2022-09-11T07:50:58;56.00;;;33.60;;
920;SDS011;447;51.332;6.778;2022-09-11T07:53:27;52.10;;;30.03;;
920;SDS011;447;51.332;6.778;2022-09-11T07:56:00;55.70;;;31.93;;
920;SDS011;447;51.332;6.778;2022-09-11T07:58:32;56.00;;;32.20;;
920;SDS011;447;51.332;6.778;2022-09-11T08:01:07;61.90;;;34.77;;
920;SDS011;447;51.332;6.778;2022-09-11T08:03:38;50.77;;;32.07;;
920;SDS011;447;51.332;6.778;2022-09-11T08:06:26;52.20;;;34.03;;
920;SDS011;447;51.332;6.778;2022-09-11T08:08:56;54.53;;;34.13;;
920;SDS011;447;51.332;6.778;2022-09-11T08:11:31;60.03;;;32.73;;
920;SDS011;447;51.332;6.778;2022-09-11T08:14:06;55.37;;;32.13;;
920;SDS011;447;51.332;6.778;2022-09-11T08:16:35;54.47;;;31.87;;
920;SDS011;447;51.332;6.778;2022-09-11T08:19:04;55.70;;;33.17;;
920;SDS011;447;51.332;6.778;2022-09-11T08:21:33;55.10;;;34.13;;
920;SDS011;447;51.332;6.778;2022-09-11T08:24:03;54.57;;;33.67;;
920;SDS011;447;51.332;6.778;2022-09-11T08:26:34;54.37;;;34.70;;
920;SDS011;447;51.332;6.778;2022-09-11T08:29:01;60.43;;;36.23;;
920;SDS011;447;51.332;6.778;2022-09-11T08:31:30;62.23;;;34.07;;
920;SDS011;447;51.332;6.778;2022-09-11T08:34:02;64.23;;;34.50;;
920;SDS011;447;51.332;6.778;2022-09-11T08:36:30;61.60;;;36.30;;
920;SDS011;447;51.332;6.778;2022-09-11T08:38:59;59.73;;;35.20;;
920;SDS011;447;51.332;6.778;2022-09-11T08:44:25;54.43;;;33.03;;
920;SDS011;447;51.332;6.778;2022-09-11T08:47:13;52.90;;;32.83;;
920;SDS011;447;51.332;6.778;2022-09-11T08:49:53;57.90;;;33.90;;
920;SDS011;447;51.332;6.778;2022-09-11T08:52:40;48.77;;;31.83;;
920;SDS011;447;51.332;6.778;2022-09-11T08:55:13;51.47;;;31.80;;
920;SDS011;447;51.332;6.778;2022-09-11T09:00:57;46.40;;;29.80;;
920;SDS011;447;51.332;6.778;2022-09-11T09:03:35;46.53;;;29.50;;
920;SDS011;447;51.332;6.778;2022-09-11T09:15:23;39.23;;;26.60;;
920;SDS011;447;51.332;6.778;2022-09-11T09:17:58;37.37;;;26.43;;
920;SDS011;447;51.332;6.778;2022-09-11T09:20:33;41.63;;;27.27;;
920;SDS011;447;51.332;6.778;2022-09-11T09:23:05;37.13;;;25.03;;
920;SDS011;447;51.332;6.778;2022-09-11T09:25:44;34.30;;;23.90;;
920;SDS011;447;51.332;6.778;2022-09-11T09:28:33;40.93;;;24.80;;
920;SDS011;447;51.332;6.778;2022-09-11T09:31:09;35.27;;;24.60;;
920;SDS011;447;51.332;6.778;2022-09-11T09:33:51;38.67;;;25.40;;
920;SDS011;447;51.332;6.778;2022-09-11T09:39:39;34.10;;;23.00;;
920;SDS011;447;51.332;6.778;2022-09-11T09:45:00;35.40;;;24.83;;
920;SDS011;447;51.332;6.778;2022-09-11T09:47:42;38.93;;;26.80;;
920;SDS011;447;51.332;6.778;2022-09-11T09:50:27;34.20;;;23.87;;
920;SDS011;447;51.332;6.778;2022-09-11T09:55:57;36.93;;;26.60;;
920;SDS011;447;51.332;6.778;2022-09-11T09:59:10;35.33;;;24.97;;
920;SDS011;447;51.332;6.778;2022-09-11T10:01:44;37.70;;;27.50;;
920;SDS011;447;51.332;6.778;2022-09-11T10:07:05;39.90;;;26.60;;
920;SDS011;447;51.332;6.778;2022-09-11T10:09:34;43.17;;;29.00;;
920;SDS011;447;51.332;6.778;2022-09-11T10:12:13;39.00;;;27.67;;
920;SDS011;447;51.332;6.778;2022-09-11T10:14:51;41.20;;;26.50;;
920;SDS011;447;51.332;6.778;2022-09-11T10:17:32;37.77;;;26.70;;
920;SDS011;447;51.332;6.778;2022-09-11T10:22:53;43.33;;;28.20;;
920;SDS011;447;51.332;6.778;2022-09-11T10:25:23;40.97;;;29.10;;
920;SDS011;447;51.332;6.778;2022-09-11T10:33:05;47.50;;;32.20;;
920;SDS011;447;51.332;6.778;2022-09-11T10:35:59;50.00;;;33.40;;
920;SDS011;447;51.332;6.778;2022-09-11T10:38:34;49.63;;;33.33;;
920;SDS011;447;51.332;6.778;2022-09-11T10:41:35;49.20;;;34.10;;
920;SDS011;447;51.332;6.778;2022-09-11T10:44:09;45.73;;;32.90;;
920;SDS011;447;51.332;6.778;2022-09-11T10:46:38;49.70;;;35.40;;
920;SDS011;447;51.332;6.778;2022-09-11T10:49:23;52.03;;;36.43;;
920;SDS011;447;51.332;6.778;2022-09-11T10:57:38;48.70;;;34.50;;
920;SDS011;447;51.332;6.778;2022-09-11T11:02:53;48.70;;;33.80;;
920;SDS011;447;51.332;6.778;2022-09-11T11:19:50;44.57;;;33.87;;
920;SDS011;447;51.332;6.778;2022-09-11T11:30:40;43.80;;;33.93;;
920;SDS011;447;51.332;6.778;2022-09-11T11:33:32;44.20;;;34.40;;
920;SDS011;447;51.332;6.778;2022-09-11T11:36:24;47.53;;;35.10;;
920;SDS011;447;51.332;6.778;2022-09-11T11:42:13;46.63;;;34.90;;
920;SDS011;447;51.332;6.778;2022-09-11T11:45:25;42.70;;;34.17;;
920;SDS011;447;51.332;6.778;2022-09-11T11:47:59;44.90;;;34.50;;
920;SDS011;447;51.332;6.778;2022-09-11T11:50:38;42.13;;;33.93;;
920;SDS011;447;51.332;6.778;2022-09-11T11:53:16;44.27;;;32.93;;
920;SDS011;447;51.332;6.778;2022-09-11T11:58:55;43.90;;;32.90;;
920;SDS011;447;51.332;6.778;2022-09-11T12:01:33;43.17;;;32.53;;
920;SDS011;447;51.332;6.778;2022-09-11T12:06:55;43.27;;;34.07;;
920;SDS011;447;51.332;6.778;2022-09-11T12:09:26;43.20;;;33.17;;
920;SDS011;447;51.332;6.778;2022-09-11T12:11:57;38.73;;;30.33;;
920;SDS011;447;51.332;6.778;2022-09-11T12:14:32;40.17;;;29.97;;
920;SDS011;447;51.332;6.778;2022-09-11T12:33:00;32.10;;;26.77;;
920;SDS011;447;51.332;6.778;2022-09-11T12:46:02;27.20;;;23.27;;
920;SDS011;447;51.332;6.778;2022-09-11T12:48:46;25.63;;;22.50;;
920;SDS011;447;51.332;6.778;2022-09-11T12:51:32;26.63;;;22.00;;
920;SDS011;447;51.332;6.778;2022-09-11T12:54:14;24.10;;;20.87;;
920;SDS011;447;51.332;6.778;2022-09-11T12:56:51;26.37;;;22.23;;
920;SDS011;447;51.332;6.778;2022-09-11T12:59:56;23.07;;;19.73;;
920;SDS011;447;51.332;6.778;2022-09-11T13:02:32;24.20;;;21.00;;
920;SDS011;447;51.332;6.778;2022-09-11T13:05:05;24.07;;;19.97;;
920;SDS011;447;51.332;6.778;2022-09-11T13:07:44;22.13;;;19.40;;
920;SDS011;447;51.332;6.778;2022-09-11T13:18:47;23.33;;;19.60;;
920;SDS011;447;51.332;6.778;2022-09-11T13:21:16;20.83;;;17.07;;
920;SDS011;447;51.332;6.778;2022-09-11T13:23:46;20.60;;;18.40;;
920;SDS011;447;51.332;6.778;2022-09-11T13:26:24;25.70;;;18.47;;
920;SDS011;447;51.332;6.778;2022-09-11T13:28:58;24.13;;;18.73;;
920;SDS011;447;51.332;6.778;2022-09-11T13:31:32;22.13;;;18.80;;
920;SDS011;447;51.332;6.778;2022-09-11T13:34:04;18.27;;;15.63;;
920;SDS011;447;51.332;6.778;2022-09-11T13:36:38;19.50;;;15.70;;
920;SDS011;447;51.332;6.778;2022-09-11T13:39:07;19.40;;;16.40;;
920;SDS011;447;51.332;6.778;2022-09-11T13:41:39;18.70;;;15.30;;
920;SDS011;447;51.332;6.778;2022-09-11T13:44:22;17.50;;;15.60;;
920;SDS011;447;51.332;6.778;2022-09-11T13:50:04;16.40;;;14.60;;
920;SDS011;447;51.332;6.778;2022-09-11T13:52:37;17.80;;;15.47;;
920;SDS011;447;51.332;6.778;2022-09-11T13:55:13;16.53;;;14.63;;
920;SDS011;447;51.332;6.778;2022-09-11T13:57:50;19.70;;;16.30;;
920;SDS011;447;51.332;6.778;2022-09-11T14:03:15;15.60;;;14.10;;
920;SDS011;447;51.332;6.778;2022-09-11T14:05:46;17.43;;;15.57;;
920;SDS011;447;51.332;6.778;2022-09-11T14:08:21;16.30;;;14.70;;
920;SDS011;447;51.332;6.778;2022-09-11T14:16:02;16.53;;;14.57;;
920;SDS011;447;51.332;6.778;2022-09-11T14:21:04;16.80;;;15.20;;
920;SDS011;447;51.332;6.778;2022-09-11T14:23:41;16.30;;;14.60;;
920;SDS011;447;51.332;6.778;2022-09-11T14:26:17;16.10;;;14.53;;
920;SDS011;447;51.332;6.778;2022-09-11T14:34:10;18.50;;;14.97;;
920;SDS011;447;51.332;6.778;2022-09-11T14:36:52;15.10;;;13.70;;
920;SDS011;447;51.332;6.778;2022-09-11T14:39:57;17.20;;;15.40;;
920;SDS011;447;51.332;6.778;2022-09-11T14:42:32;16.10;;;14.40;;
920;SDS011;447;51.332;6.778;2022-09-11T14:45:07;16.60;;;15.00;;
920;SDS011;447;51.332;6.778;2022-09-11T14:47:34;16.30;;;14.60;;
920;SDS011;447;51.332;6.778;2022-09-11T14:50:03;14.77;;;13.37;;
920;SDS011;447;51.332;6.778;2022-09-11T14:52:31;16.77;;;15.17;;
920;SDS011;447;51.332;6.778;2022-09-11T14:54:57;15.70;;;14.20;;
920;SDS011;447;51.332;6.778;2022-09-11T14:57:26;14.10;;;12.70;;
920;SDS011;447;51.332;6.778;2022-09-11T14:59:59;14.53;;;13.13;;
920;SDS011;447;51.332;6.778;2022-09-11T15:02:25;13.83;;;12.53;;
920;SDS011;447;51.332;6.778;2022-09-11T15:04:54;15.80;;;14.30;;
920;SDS011;447;51.332;6.778;2022-09-11T15:07:22;14.90;;;13.47;;
920;SDS011;447;51.332;6.778;2022-09-11T15:09:52;15.47;;;13.80;;
920;SDS011;447;51.332;6.778;2022-09-11T15:12:19;15.40;;;13.90;;
920;SDS011;447;51.332;6.778;2022-09-11T15:14:47;14.43;;;13.03;;
920;SDS011;447;51.332;6.778;2022-09-11T15:17:14;13.57;;;12.20;;
920;SDS011;447;51.332;6.778;2022-09-11T15:19:42;14.07;;;12.80;;
920;SDS011;447;51.332;6.778;2022-09-11T15:22:14;14.37;;;12.97;;
920;SDS011;447;51.332;6.778;2022-09-11T15:24:42;13.70;;;12.07;;
920;SDS011;447;51.332;6.778;2022-09-11T15:27:08;14.33;;;13.03;;
920;SDS011;447;51.332;6.778;2022-09-11T15:29:34;13.63;;;12.33;;
920;SDS011;447;51.332;6.778;2022-09-11T15:32:07;14.27;;;12.80;;
920;SDS011;447;51.332;6.778;2022-09-11T15:34:34;14.27;;;12.80;;
920;SDS011;447;51.332;6.778;2022-09-11T15:37:00;13.33;;;11.27;;
920;SDS011;447;51.332;6.778;2022-09-11T15:39:26;13.00;;;11.80;;
920;SDS011;447;51.332;6.778;2022-09-11T15:41:55;13.60;;;12.30;;
920;SDS011;447;51.332;6.778;2022-09-11T15:44:22;15.13;;;13.03;;
920;SDS011;447;51.332;6.778;2022-09-11T15:46:50;13.20;;;11.97;;
920;SDS011;447;51.332;6.778;2022-09-11T15:49:40;13.23;;;11.83;;
920;SDS011;447;51.332;6.778;2022-09-11T15:52:34;12.70;;;11.50;;
920;SDS011;447;51.332;6.778;2022-09-11T15:55:03;13.13;;;11.93;;
920;SDS011;447;51.332;6.778;2022-09-11T15:57:36;13.17;;;11.97;;
920;SDS011;447;51.332;6.778;2022-09-11T16:00:03;13.20;;;11.90;;
920;SDS011;447;51.332;6.778;2022-09-11T16:02:37;12.80;;;11.70;;
920;SDS011;447;51.332;6.778;2022-09-11T16:05:03;12.40;;;10.97;;
920;SDS011;447;51.332;6.778;2022-09-11T16:07:32;13.03;;;11.90;;
920;SDS011;447;51.332;6.778;2022-09-11T16:09:59;12.87;;;11.67;;
920;SDS011;447;51.332;6.778;2022-09-11T16:12:47;13.50;;;12.20;;
920;SDS011;447;51.332;6.778;2022-09-11T16:15:34;11.70;;;10.60;;
920;SDS011;447;51.332;6.778;2022-09-11T16:18:02;12.60;;;11.50;;
920;SDS011;447;51.332;6.778;2022-09-11T16:20:30;12.50;;;11.20;;
920;SDS011;447;51.332;6.778;2022-09-11T16:22:58;12.47;;;11.07;;
920;SDS011;447;51.332;6.778;2022-09-11T16:25:28;12.73;;;11.23;;
920;SDS011;447;51.332;6.778;2022-09-11T16:27:55;12.40;;;11.13;;
920;SDS011;447;51.332;6.778;2022-09-11T16:30:24;12.43;;;11.23;;
920;SDS011;447;51.332;6.778;2022-09-11T16:32:51;12.77;;;11.43;;
920;SDS011;447;51.332;6.778;2022-09-11T16:35:20;16.70;;;11.40;;
920;SDS011;447;51.332;6.778;2022-09-11T16:37:47;13.30;;;12.10;;
920;SDS011;447;51.332;6.778;2022-09-11T16:40:18;13.03;;;11.70;;
920;SDS011;447;51.332;6.778;2022-09-11T16:42:44;11.63;;;10.50;;
920;SDS011;447;51.332;6.778;2022-09-11T16:45:10;12.43;;;11.23;;
920;SDS011;447;51.332;6.778;2022-09-11T16:47:36;14.93;;;11.90;;
920;SDS011;447;51.332;6.778;2022-09-11T16:50:05;13.07;;;11.77;;
920;SDS011;447;51.332;6.778;2022-09-11T16:52:37;13.33;;;11.10;;
920;SDS011;447;51.332;6.778;2022-09-11T16:55:07;12.37;;;11.23;;
920;SDS011;447;51.332;6.778;2022-09-11T16:57:34;12.67;;;11.40;;
920;SDS011;447;51.332;6.778;2022-09-11T17:00:03;13.03;;;11.80;;
920;SDS011;447;51.332;6.778;2022-09-11T17:02:43;13.60;;;12.30;;
920;SDS011;447;51.332;6.778;2022-09-11T17:05:14;13.53;;;12.33;;
920;SDS011;447;51.332;6.778;2022-09-11T17:07:42;13.53;;;12.23;;
920;SDS011;447;51.332;6.778;2022-09-11T17:10:07;12.10;;;10.90;;
920;SDS011;447;51.332;6.778;2022-09-11T17:12:37;12.90;;;11.70;;
920;SDS011;447;51.332;6.778;2022-09-11T17:15:04;13.37;;;11.97;;
920;SDS011;447;51.332;6.778;2022-09-11T17:17:56;12.73;;;11.50;;
920;SDS011;447;51.332;6.778;2022-09-11T17:20:33;12.77;;;11.57;;
920;SDS011;447;51.332;6.778;2022-09-11T17:22:59;12.80;;;11.60;;
920;SDS011;447;51.332;6.778;2022-09-11T17:25:25;12.57;;;11.47;;
920;SDS011;447;51.332;6.778;2022-09-11T17:27:58;12.20;;;11.07;;
920;SDS011;447;51.332;6.778;2022-09-11T17:30:25;11.87;;;10.63;;
920;SDS011;447;51.332;6.778;2022-09-11T17:32:51;11.97;;;10.87;;
920;SDS011;447;51.332;6.778;2022-09-11T17:35:17;12.27;;;11.17;;
920;SDS011;447;51.332;6.778;2022-09-11T17:37:44;11.70;;;10.60;;
920;SDS011;447;51.332;6.778;2022-09-11T17:40:15;12.30;;;10.90;;
920;SDS011;447;51.332;6.778;2022-09-11T17:42:44;12.00;;;10.90;;
920;SDS011;447;51.332;6.778;2022-09-11T17:45:10;11.17;;;10.17;;
920;SDS011;447;51.332;6.778;2022-09-11T17:47:37;12.23;;;11.03;;
920;SDS011;447;51.332;6.778;2022-09-11T17:50:08;12.37;;;11.17;;
920;SDS011;447;51.332;6.778;2022-09-11T17:52:35;13.10;;;11.90;;
920;SDS011;447;51.332;6.778;2022-09-11T17:55:02;11.30;;;10.20;;
920;SDS011;447;51.332;6.778;2022-09-11T17:57:29;11.73;;;10.70;;
920;SDS011;447;51.332;6.778;2022-09-11T17:59:59;12.37;;;11.07;;
920;SDS011;447;51.332;6.778;2022-09-11T18:02:25;12.13;;;10.93;;
920;SDS011;447;51.332;6.778;2022-09-11T18:04:54;13.13;;;11.83;;
920;SDS011;447;51.332;6.778;2022-09-11T18:07:20;13.53;;;12.30;;
920;SDS011;447;51.332;6.778;2022-09-11T18:09:47;12.47;;;11.23;;
920;SDS011;447;51.332;6.778;2022-09-11T18:12:14;13.27;;;11.97;;
920;SDS011;447;51.332;6.778;2022-09-11T18:14:40;12.63;;;10.80;;
920;SDS011;447;51.332;6.778;2022-09-11T18:17:08;12.50;;;11.30;;
920;SDS011;447;51.332;6.778;2022-09-11T18:19:35;12.90;;;11.63;;
920;SDS011;447;51.332;6.778;2022-09-11T18:22:03;11.77;;;10.67;;
920;SDS011;447;51.332;6.778;2022-09-11T18:24:37;12.37;;;11.13;;
920;SDS011;447;51.332;6.778;2022-09-11T18:27:03;12.37;;;11.20;;
920;SDS011;447;51.332;6.778;2022-09-11T18:29:31;14.67;;;12.60;;
920;SDS011;447;51.332;6.778;2022-09-11T18:32:00;12.07;;;10.97;;
920;SDS011;447;51.332;6.778;2022-09-11T18:34:27;11.97;;;10.80;;
920;SDS011;447;51.332;6.778;2022-09-11T18:36:57;13.87;;;11.30;;
920;SDS011;447;51.332;6.778;2022-09-11T18:39:27;11.30;;;10.20;;